Terminal Aerodrome Forecast
Issued by NWS Sioux Falls, SD

Home | Current Version | Previous Version | Graphics & Text | Print | Product List | Glossary Off
Versions: 1 2 3 4 5 6 7 8 9 10 11 12

000
FTUS43 KFSD 202320
TAFHON
TAF
KHON 202320Z 2100/2124 15008KT P6SM OVC130
     FM210300 14006KT P6SM VCSH BKN050 OVC100
     FM211300 14010KT P6SM OVC050=

USA.gov is the U.S. government's official web portal to all federal, state and local government web resources and services.